createdAt,value
2023-03-31T00:01:15.459Z,-0.17
2023-03-31T00:03:45.226Z,-0.18
2023-03-31T00:06:18.808Z,-0.58
2023-03-31T00:08:51.887Z,-0.43
2023-03-31T00:11:21.606Z,-0.20
2023-03-31T00:13:50.078Z,-0.20
2023-03-31T00:16:18.236Z,-0.21
2023-03-31T00:18:47.857Z,-0.27
2023-03-31T00:21:25.710Z,-0.91
2023-03-31T00:23:56.412Z,-0.30
2023-03-31T00:26:25.057Z,-0.72
2023-03-31T00:28:53.491Z,-0.34
2023-03-31T00:31:22.296Z,-0.55
2023-03-31T00:33:50.823Z,-0.41
2023-03-31T00:36:27.512Z,-0.42
2023-03-31T00:38:56.560Z,-0.42
2023-03-31T00:41:24.564Z,-0.96
2023-03-31T00:44:09.598Z,-0.43
2023-03-31T00:46:43.456Z,-0.42
2023-03-31T00:49:21.014Z,-0.42
2023-03-31T00:51:54.006Z,-0.43
2023-03-31T00:54:26.077Z,-0.45
2023-03-31T00:56:58.566Z,-0.47
2023-03-31T00:59:30.911Z,-0.62
2023-03-31T01:02:02.789Z,-0.50
2023-03-31T01:04:37.282Z,-0.49
2023-03-31T01:07:12.797Z,-0.53
2023-03-31T01:09:42.263Z,-1.37
2023-03-31T01:12:11.846Z,-0.54
2023-03-31T01:14:40.012Z,-1.19
2023-03-31T01:17:10.695Z,-0.83
2023-03-31T01:19:53.041Z,-0.59
2023-03-31T01:23:14.640Z,-0.88
2023-03-31T01:26:16.934Z,-0.63
2023-03-31T01:28:52.613Z,-0.96
2023-03-31T01:31:43.846Z,-0.66
2023-03-31T01:34:59.224Z,-0.68
2023-03-31T01:37:58.245Z,-0.69
2023-03-31T01:40:36.467Z,-0.71
2023-03-31T01:43:11.270Z,-0.70
2023-03-31T01:45:52.887Z,-0.70
2023-03-31T01:48:38.229Z,-0.72
2023-03-31T01:51:10.841Z,-0.96
2023-03-31T01:53:49.747Z,-0.71
2023-03-31T01:56:24.850Z,-0.90
2023-03-31T01:58:57.223Z,-0.93
2023-03-31T02:01:32.433Z,-0.78
2023-03-31T02:04:04.913Z,-0.77
2023-03-31T02:06:47.375Z,-0.79
2023-03-31T02:09:19.779Z,-0.91
2023-03-31T02:11:52.208Z,-0.76
2023-03-31T02:14:25.702Z,-0.78
2023-03-31T02:16:59.330Z,-0.77
2023-03-31T02:19:33.286Z,-0.78
2023-03-31T02:22:06.671Z,-1.00
2023-03-31T02:24:37.266Z,-0.79
2023-03-31T02:27:13.866Z,-0.81
2023-03-31T02:29:42.040Z,-0.84
2023-03-31T02:32:17.751Z,-0.98
2023-03-31T02:34:45.746Z,-0.85
2023-03-31T02:37:14.266Z,-0.99
2023-03-31T02:39:46.025Z,-0.86
2023-03-31T02:42:16.174Z,-1.54
2023-03-31T02:44:45.596Z,-1.45
2023-03-31T02:47:16.057Z,-0.87
2023-03-31T02:49:49.387Z,-0.87
2023-03-31T02:52:49.942Z,-0.90
2023-03-31T02:55:33.778Z,-0.88
2023-03-31T02:58:35.678Z,-0.87
2023-03-31T03:01:15.833Z,-1.02
2023-03-31T03:03:54.128Z,-0.84
2023-03-31T03:06:38.516Z,-0.85
2023-03-31T03:09:17.481Z,-0.85
2023-03-31T03:11:53.848Z,-0.84
2023-03-31T03:14:31.405Z,-0.85
2023-03-31T03:17:04.060Z,-0.85
2023-03-31T03:19:31.964Z,-0.86
2023-03-31T03:21:59.877Z,-0.88
2023-03-31T03:24:29.854Z,-1.53
2023-03-31T03:26:58.604Z,-0.91
2023-03-31T03:29:28.377Z,-0.91
2023-03-31T03:31:56.573Z,-1.19
2023-03-31T03:34:25.691Z,-0.90
2023-03-31T03:36:53.628Z,-0.93
2023-03-31T03:39:22.279Z,-0.90
2023-03-31T03:41:50.424Z,-0.90
2023-03-31T03:44:18.324Z,-0.90
2023-03-31T03:46:47.737Z,-1.32
2023-03-31T03:49:15.872Z,-0.89
2023-03-31T03:51:44.149Z,-0.90
2023-03-31T03:54:12.016Z,-0.91
2023-03-31T03:56:40.076Z,-0.90
2023-03-31T03:59:08.281Z,-1.42
2023-03-31T04:01:36.179Z,-0.88
2023-03-31T04:04:05.907Z,-1.82
2023-03-31T04:06:33.898Z,-0.89
2023-03-31T04:09:01.819Z,-1.04
2023-03-31T04:11:30.041Z,-0.87
2023-03-31T04:13:57.932Z,-1.01
2023-03-31T04:16:27.282Z,-0.87
2023-03-31T04:18:56.801Z,-0.88
2023-03-31T04:21:26.842Z,-0.91
2023-03-31T04:24:02.021Z,-1.16
2023-03-31T04:26:39.193Z,-0.99
2023-03-31T04:29:07.775Z,-2.17
2023-03-31T04:31:38.810Z,-0.94
2023-03-31T04:34:13.572Z,-1.73
2023-03-31T04:36:47.481Z,-0.99
2023-03-31T04:39:17.444Z,-0.99
2023-03-31T04:41:45.615Z,-1.17
2023-03-31T04:44:13.482Z,-1.00
2023-03-31T04:46:41.644Z,-1.82
2023-03-31T04:49:10.308Z,-1.16
2023-03-31T04:51:38.157Z,-1.01
2023-03-31T04:54:07.649Z,-1.58
2023-03-31T04:56:37.333Z,-0.95
2023-03-31T04:59:06.300Z,-3.06
2023-03-31T05:01:36.382Z,-0.91
2023-03-31T05:04:05.572Z,-1.10
2023-03-31T05:06:36.401Z,-0.96
2023-03-31T05:09:04.420Z,-1.67
2023-03-31T05:11:36.630Z,-1.13
2023-03-31T05:14:07.942Z,-0.96
2023-03-31T05:16:36.381Z,-0.94
2023-03-31T05:19:05.039Z,-0.91
2023-03-31T05:21:34.256Z,-0.89
2023-03-31T05:24:02.089Z,-0.88
2023-03-31T05:26:30.024Z,-0.85
2023-03-31T05:28:59.487Z,-1.12
2023-03-31T05:31:28.174Z,-0.83
2023-03-31T05:33:56.191Z,-0.85
2023-03-31T05:36:27.940Z,-1.49
2023-03-31T05:38:56.967Z,-1.51
2023-03-31T05:41:25.146Z,-0.76
2023-03-31T05:43:53.338Z,-0.75
2023-03-31T05:46:30.940Z,-0.70
2023-03-31T05:48:59.825Z,-0.95
2023-03-31T05:51:27.802Z,-1.17
2023-03-31T05:53:56.635Z,-1.54
2023-03-31T05:56:24.547Z,-0.64
2023-03-31T05:58:52.503Z,-0.68
2023-03-31T06:01:25.040Z,-0.95
2023-03-31T06:03:53.655Z,-0.65
2023-03-31T06:06:21.619Z,-0.66
2023-03-31T06:08:51.017Z,-0.91
2023-03-31T06:11:22.218Z,-0.60
2023-03-31T06:13:50.975Z,-0.58
2023-03-31T06:16:19.629Z,-0.54
2023-03-31T06:18:51.545Z,-0.50
2023-03-31T06:21:20.829Z,-1.05
2023-03-31T06:23:49.213Z,-0.58
2023-03-31T06:26:19.315Z,-0.75
2023-03-31T06:28:48.250Z,-0.42
2023-03-31T06:31:17.469Z,-1.32
2023-03-31T06:33:48.622Z,-0.39
2023-03-31T06:36:18.858Z,-0.32
2023-03-31T06:38:47.567Z,-0.24
2023-03-31T06:41:20.749Z,-0.36
2023-03-31T06:43:48.844Z,-0.18
2023-03-31T06:46:18.187Z,-0.13
2023-03-31T06:48:46.206Z,-0.11
2023-03-31T06:51:17.518Z,-0.48
2023-03-31T06:53:46.564Z,-0.12
2023-03-31T06:56:14.544Z,-0.08
2023-03-31T06:58:42.527Z,-0.23
2023-03-31T07:01:11.785Z,-0.02
2023-03-31T07:03:40.168Z,-0.04
2023-03-31T07:06:08.303Z,-0.10
2023-03-31T07:08:37.583Z,-0.19
2023-03-31T07:11:06.306Z,-0.20
2023-03-31T07:13:34.958Z,-0.05
2023-03-31T07:16:05.104Z,-0.01
2023-03-31T07:18:35.506Z,0.06
2023-03-31T07:21:07.906Z,0.15
2023-03-31T07:23:39.659Z,0.19
2023-03-31T07:26:07.927Z,0.20
2023-03-31T07:28:36.611Z,-0.08
2023-03-31T07:31:05.134Z,0.18
2023-03-31T07:33:34.701Z,0.31
2023-03-31T07:36:12.850Z,0.15
2023-03-31T07:38:46.731Z,0.42
2023-03-31T07:41:18.039Z,0.41
2023-03-31T07:43:47.231Z,0.29
2023-03-31T07:46:17.874Z,0.52
2023-03-31T07:48:47.757Z,0.05
2023-03-31T07:51:21.970Z,0.57
2023-03-31T07:53:52.948Z,0.82
2023-03-31T07:56:22.145Z,0.89
2023-03-31T07:58:56.839Z,0.30
2023-03-31T08:01:29.440Z,0.88
2023-03-31T08:03:57.812Z,0.72
2023-03-31T08:06:27.304Z,0.91
2023-03-31T08:08:57.054Z,0.92
2023-03-31T08:11:25.947Z,0.24
2023-03-31T08:13:54.060Z,0.98
2023-03-31T08:16:22.198Z,1.05
2023-03-31T08:18:50.640Z,0.15
2023-03-31T08:21:18.721Z,1.36
2023-03-31T08:23:47.012Z,1.53
2023-03-31T08:26:20.006Z,1.25
2023-03-31T08:28:49.412Z,1.54
2023-03-31T08:31:19.137Z,2.12
2023-03-31T08:33:47.154Z,2.26
2023-03-31T08:36:15.641Z,2.41
2023-03-31T08:38:46.469Z,2.39
2023-03-31T08:41:28.703Z,2.61
2023-03-31T08:43:59.687Z,2.46
2023-03-31T08:46:30.954Z,2.67
2023-03-31T08:49:01.307Z,2.69
2023-03-31T08:51:36.224Z,2.06
2023-03-31T08:54:08.188Z,2.09
2023-03-31T08:56:40.374Z,2.59
2023-03-31T08:59:28.515Z,3.03
2023-03-31T09:02:03.099Z,3.24
2023-03-31T09:04:56.601Z,3.94
2023-03-31T09:07:33.433Z,4.00
2023-03-31T09:10:12.104Z,4.18
2023-03-31T09:12:50.619Z,4.19
2023-03-31T09:15:27.333Z,4.19
2023-03-31T09:18:01.536Z,4.91
2023-03-31T09:20:34.554Z,5.52
2023-03-31T09:23:12.786Z,5.73
2023-03-31T09:25:42.436Z,6.30
2023-03-31T09:28:19.059Z,6.92
2023-03-31T09:30:51.522Z,7.09
2023-03-31T09:33:32.473Z,7.01
2023-03-31T09:36:03.087Z,7.92
2023-03-31T09:38:31.438Z,8.21
2023-03-31T09:41:00.236Z,8.13
2023-03-31T09:43:31.691Z,8.10
2023-03-31T09:46:08.728Z,7.34
2023-03-31T09:48:41.858Z,7.67
2023-03-31T09:51:19.794Z,7.53
2023-03-31T09:53:53.195Z,7.67
2023-03-31T09:56:36.477Z,7.85
2023-03-31T09:59:06.212Z,8.11
2023-03-31T10:01:36.756Z,8.33
2023-03-31T10:04:10.574Z,8.64
2023-03-31T10:06:43.404Z,8.65
2023-03-31T10:09:15.068Z,7.95
2023-03-31T10:11:54.796Z,7.88
2023-03-31T10:14:36.042Z,7.61
2023-03-31T10:17:07.493Z,7.31
2023-03-31T10:19:38.999Z,7.30
2023-03-31T10:22:18.327Z,5.10
2023-03-31T10:24:47.581Z,6.75
2023-03-31T10:27:22.461Z,5.15
2023-03-31T10:29:55.648Z,6.74
2023-03-31T10:32:29.067Z,5.79
2023-03-31T10:34:59.195Z,6.33
2023-03-31T10:37:29.757Z,6.60
2023-03-31T10:40:04.657Z,6.90
2023-03-31T10:42:33.542Z,7.21
2023-03-31T10:45:36.603Z,6.90
2023-03-31T10:48:18.545Z,7.16
2023-03-31T10:50:46.968Z,6.13
2023-03-31T10:53:18.566Z,6.25
2023-03-31T10:55:59.199Z,5.38
2023-03-31T10:58:49.169Z,6.12
2023-03-31T11:01:37.871Z,5.97
2023-03-31T11:04:30.009Z,6.53
2023-03-31T11:07:09.610Z,6.73
2023-03-31T11:09:52.762Z,7.35
2023-03-31T11:12:26.025Z,7.60
2023-03-31T11:15:08.350Z,7.77
2023-03-31T11:17:52.209Z,8.44
2023-03-31T11:20:30.892Z,8.67
2023-03-31T11:23:09.097Z,8.41
2023-03-31T11:25:44.246Z,9.55
2023-03-31T11:28:32.115Z,9.91
2023-03-31T11:31:15.870Z,9.94
2023-03-31T11:34:04.122Z,9.40
2023-03-31T11:36:58.775Z,8.67
2023-03-31T11:39:39.499Z,8.71
2023-03-31T11:42:11.645Z,8.67
2023-03-31T11:44:44.104Z,8.13
2023-03-31T11:47:16.776Z,8.12
2023-03-31T11:49:52.363Z,8.42
2023-03-31T11:52:23.742Z,8.74
2023-03-31T11:54:57.229Z,8.99
2023-03-31T11:57:28.776Z,9.10
2023-03-31T12:00:00.884Z,8.79
2023-03-31T12:02:37.982Z,9.38
2023-03-31T12:05:11.267Z,9.51
2023-03-31T12:07:43.371Z,9.23
2023-03-31T12:10:20.231Z,9.97
2023-03-31T12:12:52.932Z,10.32
2023-03-31T12:15:24.801Z,9.73
2023-03-31T12:17:58.609Z,10.06
2023-03-31T12:20:33.263Z,10.32
2023-03-31T12:23:05.636Z,10.23
2023-03-31T12:25:48.570Z,9.49
2023-03-31T12:28:19.440Z,9.05
2023-03-31T12:30:49.901Z,8.67
2023-03-31T12:33:23.872Z,7.96
2023-03-31T12:36:07.496Z,8.58
2023-03-31T12:38:54.824Z,9.16
2023-03-31T12:41:33.102Z,9.65
2023-03-31T12:44:18.782Z,10.13
2023-03-31T12:47:28.126Z,10.54
2023-03-31T12:50:17.648Z,10.76
2023-03-31T12:52:56.224Z,10.73
2023-03-31T12:55:33.161Z,10.64
2023-03-31T12:58:48.655Z,11.15
2023-03-31T13:01:20.440Z,10.47
2023-03-31T13:03:54.253Z,11.38
2023-03-31T13:06:53.845Z,12.16
2023-03-31T13:09:49.421Z,12.57
2023-03-31T13:12:20.066Z,12.33
2023-03-31T13:14:51.866Z,13.07
2023-03-31T13:17:27.229Z,13.20
2023-03-31T13:19:56.462Z,13.84
2023-03-31T13:22:33.066Z,13.64
2023-03-31T13:25:34.512Z,13.09
2023-03-31T13:28:13.806Z,12.58
2023-03-31T13:30:50.830Z,12.64
2023-03-31T13:33:24.057Z,12.16
2023-03-31T13:35:58.812Z,12.50
2023-03-31T13:38:44.829Z,12.46
2023-03-31T13:41:24.704Z,12.85
2023-03-31T13:44:41.046Z,13.75
2023-03-31T13:47:59.369Z,14.45
2023-03-31T13:50:52.137Z,14.18
2023-03-31T13:53:39.607Z,13.58
2023-03-31T13:56:27.091Z,13.80
2023-03-31T13:59:23.372Z,13.67
2023-03-31T14:02:13.405Z,13.48
2023-03-31T14:05:05.896Z,13.07
2023-03-31T14:07:39.520Z,12.86
2023-03-31T14:10:22.932Z,12.66
2023-03-31T14:12:52.857Z,11.57
2023-03-31T14:15:22.309Z,11.68
2023-03-31T14:17:51.883Z,11.75
2023-03-31T14:20:30.753Z,12.27
2023-03-31T14:23:13.127Z,11.96
2023-03-31T14:25:51.679Z,11.82
2023-03-31T14:28:36.672Z,11.59
2023-03-31T14:31:20.599Z,11.03
2023-03-31T14:34:08.260Z,11.42
2023-03-31T14:36:42.793Z,11.65
2023-03-31T14:39:13.793Z,11.92
2023-03-31T14:41:44.617Z,11.88
2023-03-31T14:44:17.040Z,12.12
2023-03-31T14:46:46.432Z,12.84
2023-03-31T14:49:21.942Z,13.08
2023-03-31T14:51:50.149Z,14.08
2023-03-31T14:54:19.463Z,14.24
2023-03-31T14:56:50.048Z,14.07
2023-03-31T14:59:24.039Z,14.17
2023-03-31T15:01:52.821Z,14.78
2023-03-31T15:04:31.964Z,14.94
2023-03-31T15:07:07.748Z,14.84
2023-03-31T15:09:38.154Z,15.14
2023-03-31T15:12:12.148Z,14.99
2023-03-31T15:14:46.119Z,14.67
2023-03-31T15:17:20.413Z,13.90
2023-03-31T15:19:54.982Z,14.03
2023-03-31T15:22:26.155Z,13.53
2023-03-31T15:24:54.621Z,13.34
2023-03-31T15:27:36.638Z,13.35
2023-03-31T15:30:09.247Z,13.16
2023-03-31T15:32:39.138Z,12.66
2023-03-31T15:38:01.047Z,11.34
2023-03-31T15:40:30.925Z,10.89
2023-03-31T15:43:13.338Z,10.73
2023-03-31T15:45:54.708Z,9.98
2023-03-31T15:48:28.510Z,9.89
2023-03-31T15:51:02.647Z,9.76
2023-03-31T15:53:35.275Z,7.78
2023-03-31T15:56:03.504Z,9.32
2023-03-31T15:58:55.269Z,8.42
2023-03-31T16:01:29.437Z,8.37
2023-03-31T16:03:58.292Z,8.18
2023-03-31T16:06:39.469Z,7.70
2023-03-31T16:09:11.181Z,8.06
2023-03-31T16:11:43.220Z,7.00
2023-03-31T16:14:21.415Z,7.93
2023-03-31T16:16:58.059Z,7.84
2023-03-31T16:19:29.848Z,7.16
2023-03-31T16:22:02.389Z,7.33
2023-03-31T16:24:34.839Z,7.38
2023-03-31T16:27:06.913Z,7.39
2023-03-31T16:29:39.973Z,7.63
2023-03-31T16:32:11.967Z,7.19
2023-03-31T16:34:55.611Z,6.50
2023-03-31T16:37:23.708Z,5.86
2023-03-31T16:39:53.477Z,5.30
2023-03-31T16:42:22.331Z,4.69
2023-03-31T16:45:09.584Z,4.27
2023-03-31T16:47:41.568Z,3.78
2023-03-31T16:50:14.401Z,3.41
2023-03-31T16:52:44.562Z,2.33
2023-03-31T16:55:15.258Z,2.70
2023-03-31T16:57:43.589Z,2.74
2023-03-31T17:00:13.680Z,2.60
2023-03-31T17:02:43.239Z,2.41
2023-03-31T17:05:14.129Z,2.25
2023-03-31T17:07:42.473Z,1.84
2023-03-31T17:10:13.878Z,1.48
2023-03-31T17:12:42.143Z,1.81
2023-03-31T17:15:12.361Z,1.51
2023-03-31T17:17:48.819Z,1.68
2023-03-31T17:20:17.197Z,1.61
2023-03-31T17:22:45.125Z,1.52
2023-03-31T17:25:13.116Z,1.40
2023-03-31T17:27:41.658Z,0.54
2023-03-31T17:30:10.416Z,1.24
2023-03-31T17:32:39.329Z,1.16
2023-03-31T17:35:13.496Z,1.10
2023-03-31T17:37:41.588Z,1.02
2023-03-31T17:40:11.132Z,0.66
2023-03-31T17:42:39.242Z,0.85
2023-03-31T17:45:09.346Z,0.80
2023-03-31T17:47:37.908Z,0.47
2023-03-31T17:50:06.681Z,-1.14
2023-03-31T17:52:36.650Z,-2.09
2023-03-31T17:55:05.348Z,-0.19
2023-03-31T17:57:33.691Z,0.44
2023-03-31T18:00:02.200Z,0.04
2023-03-31T18:02:30.622Z,0.30
2023-03-31T18:04:58.640Z,0.26
2023-03-31T18:07:27.550Z,0.21
2023-03-31T18:09:59.479Z,0.12
2023-03-31T18:12:29.459Z,0.07
2023-03-31T18:14:57.480Z,-0.23
2023-03-31T18:17:26.413Z,-0.01
2023-03-31T18:19:56.531Z,-0.07
2023-03-31T18:22:24.514Z,-0.10
2023-03-31T18:24:59.693Z,-0.79
2023-03-31T18:27:27.942Z,-0.18
2023-03-31T18:29:58.256Z,-0.21
2023-03-31T18:32:26.569Z,-0.51
2023-03-31T18:34:54.683Z,-0.32
2023-03-31T18:37:24.656Z,-0.37
2023-03-31T18:39:53.334Z,-1.22
2023-03-31T18:42:25.759Z,-0.46
2023-03-31T18:44:53.861Z,-0.49
2023-03-31T18:47:26.669Z,-0.51
2023-03-31T18:49:55.757Z,-0.55
2023-03-31T18:52:23.735Z,-0.57
2023-03-31T18:54:52.113Z,-0.59
2023-03-31T18:57:20.535Z,-1.25
2023-03-31T18:59:50.134Z,-0.67
2023-03-31T19:02:18.632Z,-1.09
2023-03-31T19:04:47.045Z,-0.73
2023-03-31T19:07:16.396Z,-0.78
2023-03-31T19:09:47.182Z,-0.83
2023-03-31T19:12:15.355Z,-0.88
2023-03-31T19:14:45.967Z,-0.90
2023-03-31T19:17:15.357Z,-0.95
2023-03-31T19:19:43.256Z,-1.25
2023-03-31T19:22:13.475Z,-1.03
2023-03-31T19:24:41.403Z,-1.79
2023-03-31T19:27:10.447Z,-2.87
2023-03-31T19:29:38.300Z,-1.11
2023-03-31T19:32:07.409Z,-1.13
2023-03-31T19:34:38.381Z,-2.01
2023-03-31T19:37:06.761Z,-1.17
2023-03-31T19:39:34.961Z,-1.92
2023-03-31T19:42:03.311Z,-1.21
2023-03-31T19:44:31.283Z,-1.25
2023-03-31T19:46:59.416Z,-1.64
2023-03-31T19:49:27.915Z,-1.29
2023-03-31T19:51:57.207Z,-1.59
2023-03-31T19:54:26.442Z,-1.38
2023-03-31T19:56:54.422Z,-2.67
2023-03-31T19:59:22.846Z,-1.45
2023-03-31T20:01:51.286Z,-1.50
2023-03-31T20:04:20.955Z,-1.56
2023-03-31T20:06:49.650Z,-1.87
2023-03-31T20:09:19.156Z,-1.78
2023-03-31T20:11:48.731Z,-2.45
2023-03-31T20:14:17.526Z,-1.68
2023-03-31T20:16:45.658Z,-1.68
2023-03-31T20:19:16.441Z,-1.70
2023-03-31T20:21:46.381Z,-1.72
2023-03-31T20:24:17.485Z,-2.07
2023-03-31T20:26:48.249Z,-4.14
2023-03-31T20:29:18.428Z,-2.35
2023-03-31T20:31:50.449Z,-1.82
2023-03-31T20:34:22.709Z,-3.50
2023-03-31T20:36:52.662Z,-3.01
2023-03-31T20:39:21.737Z,-2.16
2023-03-31T20:41:51.935Z,-3.31
2023-03-31T20:44:22.626Z,-4.54
2023-03-31T20:46:50.852Z,-2.26
2023-03-31T20:49:19.943Z,-2.92
2023-03-31T20:51:49.214Z,-2.62
2023-03-31T20:54:17.361Z,-1.99
2023-03-31T20:56:47.856Z,-2.02
2023-03-31T20:59:18.324Z,-2.05
2023-03-31T21:01:47.953Z,-2.32
2023-03-31T21:04:18.034Z,-2.25
2023-03-31T21:06:47.754Z,-2.09
2023-03-31T21:09:17.467Z,-2.58
2023-03-31T21:11:45.858Z,-2.48
2023-03-31T21:14:15.068Z,-3.01
2023-03-31T21:16:45.113Z,-2.23
2023-03-31T21:19:13.442Z,-2.26
2023-03-31T21:21:43.338Z,-2.30
2023-03-31T21:24:13.044Z,-2.34
2023-03-31T21:26:41.168Z,-2.36
2023-03-31T21:29:09.383Z,-3.23
2023-03-31T21:31:37.702Z,-2.44
2023-03-31T21:34:07.138Z,-2.98
2023-03-31T21:36:35.066Z,-2.50
2023-03-31T21:39:03.054Z,-2.51
2023-03-31T21:41:32.647Z,-3.29
2023-03-31T21:44:02.775Z,-3.30
2023-03-31T21:46:34.282Z,-3.07
2023-03-31T21:49:02.606Z,-3.06
2023-03-31T21:51:33.643Z,-2.65
2023-03-31T21:54:01.589Z,-2.67
2023-03-31T21:56:31.934Z,-2.70
2023-03-31T21:59:01.223Z,-2.74
2023-03-31T22:01:29.888Z,-2.75
2023-03-31T22:03:58.073Z,-2.78
2023-03-31T22:06:26.656Z,-3.18
2023-03-31T22:08:57.296Z,-2.79
2023-03-31T22:11:26.849Z,-3.68
2023-03-31T22:13:55.189Z,-3.16
2023-03-31T22:16:26.989Z,-2.82
2023-03-31T22:18:56.368Z,-2.84
2023-03-31T22:21:26.106Z,-2.85
2023-03-31T22:23:58.046Z,-2.88
2023-03-31T22:26:28.669Z,-3.33
2023-03-31T22:28:57.082Z,-3.58
2023-03-31T22:31:26.303Z,-3.13
2023-03-31T22:33:55.476Z,-3.28
2023-03-31T22:36:27.314Z,-2.98
2023-03-31T22:38:56.843Z,-3.01
2023-03-31T22:41:25.053Z,-3.02
2023-03-31T22:43:56.176Z,-3.05
2023-03-31T22:46:24.348Z,-3.19
2023-03-31T22:48:55.622Z,-3.06
2023-03-31T22:51:23.637Z,-3.25
2023-03-31T22:53:53.042Z,-3.06
2023-03-31T22:56:23.050Z,-3.03
2023-03-31T22:58:52.291Z,-3.58
2023-03-31T23:01:22.483Z,-3.06
2023-03-31T23:03:51.000Z,-3.09
2023-03-31T23:06:19.728Z,-3.35
2023-03-31T23:08:49.066Z,-3.11
2023-03-31T23:11:17.521Z,-3.51
2023-03-31T23:13:47.264Z,-3.98
2023-03-31T23:16:22.246Z,-3.75
2023-03-31T23:18:55.420Z,-3.18
2023-03-31T23:21:27.184Z,-4.16
2023-03-31T23:23:58.651Z,-3.25
2023-03-31T23:26:27.928Z,-3.23
2023-03-31T23:29:00.115Z,-3.23
2023-03-31T23:31:29.651Z,-3.63
2023-03-31T23:33:58.545Z,-3.29
2023-03-31T23:36:27.501Z,-3.32
2023-03-31T23:38:59.685Z,-3.35
2023-03-31T23:41:29.226Z,-3.38
2023-03-31T23:43:59.230Z,-3.41
2023-03-31T23:46:31.229Z,-3.44
2023-03-31T23:48:59.271Z,-3.45
2023-03-31T23:51:28.517Z,-3.49
2023-03-31T23:53:56.802Z,-3.52
2023-03-31T23:56:28.521Z,-3.71
2023-03-31T23:58:56.523Z,-3.55
